Time;durP1;ratioP1;P1;durP2;ratioP2;P2;SDS_P1;SDS_P2;PMS_P1;PMS_P2;Temp;Humidity;BMP_temperature;BMP_pressure;BME280_temperature;BME280_humidity;BME280_pressure;Samples;Min_cycle;Max_cycle;Signal;HPM_P1;HPM_P2
2021/01/28 00:01:21;;;;;;;40.30;23.00;;;25.90;2176.00;;;;;;5133403;27;20038;-75
2021/01/28 00:03:47;;;;;;;38.57;22.17;;;25.90;2176.00;;;;;;5133430;27;20015;-75
2021/01/28 00:06:13;;;;;;;42.13;22.27;;;25.80;2176.00;;;;;;5134643;27;20062;-76
2021/01/28 00:08:39;;;;;;;37.20;18.40;;;25.80;2176.00;;;;;;5134576;27;20019;-75
2021/01/28 00:11:05;;;;;;;32.50;17.23;;;25.80;2201.60;;;;;;5134495;27;20019;-76
2021/01/28 00:13:31;;;;;;;37.77;18.37;;;25.80;2201.60;;;;;;5133297;27;20098;-77
2021/01/28 00:15:57;;;;;;;34.37;16.80;;;25.80;2201.60;;;;;;5133222;27;20076;-76
2021/01/28 00:18:23;;;;;;;36.70;18.47;;;25.80;2201.60;;;;;;5134420;27;20467;-76
2021/01/28 00:20:50;;;;;;;33.80;17.70;;;25.80;2176.00;;;;;;5134593;27;20019;-76
2021/01/28 00:23:16;;;;;;;34.20;17.53;;;25.80;2176.00;;;;;;5133100;27;20019;-76
2021/01/28 00:25:42;;;;;;;38.97;20.37;;;25.80;2176.00;;;;;;5134361;27;20023;-75
2021/01/28 00:28:11;;;;;;;47.40;24.00;;;25.80;2176.00;;;;;;5134429;27;20369;-75
2021/01/28 00:30:41;;;;;;;60.03;32.60;;;25.80;2176.00;;;;;;5134014;27;20024;-75
2021/01/28 00:33:09;;;;;;;71.10;38.60;;;25.90;2176.00;;;;;;5130518;27;20361;-75
2021/01/28 00:35:38;;;;;;;73.07;40.00;;;25.80;2176.00;;;;;;5133846;27;20034;-75
2021/01/28 00:38:06;;;;;;;50.43;29.73;;;25.80;2176.00;;;;;;5130046;27;20103;-76
2021/01/28 00:40:33;;;;;;;40.20;21.30;;;25.70;2176.00;;;;;;5132877;27;20065;-76
2021/01/28 00:42:59;;;;;;;31.93;17.90;;;25.70;2176.00;;;;;;5134115;27;20018;-75
2021/01/28 00:45:28;;;;;;;31.43;16.57;;;25.80;2176.00;;;;;;5130184;27;20042;-76
2021/01/28 00:47:55;;;;;;;29.20;16.37;;;25.80;2176.00;;;;;;5132769;27;20471;-75
2021/01/28 00:50:23;;;;;;;33.13;17.87;;;25.70;2176.00;;;;;;5132679;27;20027;-75
2021/01/28 00:52:49;;;;;;;36.37;20.67;;;25.70;2176.00;;;;;;5134034;27;20365;-76
2021/01/28 00:55:16;;;;;;;28.30;16.63;;;25.70;2176.00;;;;;;5133866;27;20041;-76
2021/01/28 00:57:42;;;;;;;25.03;14.57;;;25.70;2176.00;;;;;;5133942;28;20060;-75
2021/01/28 01:00:22;;;;;;;25.87;15.27;;;25.80;2176.00;;;;;;5133687;28;20035;-78
2021/01/28 01:02:48;;;;;;;25.17;15.40;;;25.80;2176.00;;;;;;5131620;28;20045;-75
2021/01/28 01:05:17;;;;;;;27.07;15.20;;;25.80;2176.00;;;;;;5133818;27;20054;-76
2021/01/28 01:07:45;;;;;;;28.73;14.47;;;25.80;2176.00;;;;;;5133476;27;20501;-76
2021/01/28 01:10:22;;;;;;;25.83;15.63;;;25.70;2176.00;;;;;;5133801;28;20488;-76
2021/01/28 01:12:48;;;;;;;23.67;13.90;;;25.70;2176.00;;;;;;5131510;28;20020;-76
2021/01/28 01:15:14;;;;;;;21.93;13.73;;;25.80;2176.00;;;;;;5133709;27;20531;-76
2021/01/28 01:17:41;;;;;;;21.40;12.23;;;25.80;2176.00;;;;;;5132544;28;20425;-75
2021/01/28 01:20:08;;;;;;;23.00;13.53;;;25.80;2176.00;;;;;;5132611;28;20023;-75
2021/01/28 01:22:34;;;;;;;22.47;12.97;;;25.80;2176.00;;;;;;5134162;28;20528;-76
2021/01/28 01:25:00;;;;;;;18.50;11.53;;;25.80;2176.00;;;;;;5132946;28;20023;-75
2021/01/28 01:27:26;;;;;;;20.20;13.17;;;25.70;2176.00;;;;;;5132847;28;20019;-75
2021/01/28 01:29:52;;;;;;;21.23;13.00;;;25.70;2176.00;;;;;;5134442;28;20019;-75
2021/01/28 01:32:17;;;;;;;22.20;13.10;;;25.70;2176.00;;;;;;5132829;28;20388;-75
2021/01/28 01:34:43;;;;;;;23.70;13.27;;;25.60;2201.60;;;;;;5133534;28;20103;-76
2021/01/28 01:37:09;;;;;;;21.30;13.13;;;25.60;2201.60;;;;;;5133593;28;20023;-75
2021/01/28 01:39:35;;;;;;;21.83;12.13;;;25.60;2201.60;;;;;;5132238;28;20495;-75
2021/01/28 01:42:05;;;;;;;21.10;13.17;;;25.60;2201.60;;;;;;5132326;27;20042;-75
2021/01/28 01:44:30;;;;;;;21.80;13.70;;;25.60;2201.60;;;;;;5136185;27;20471;-76
2021/01/28 01:47:14;;;;;;;20.47;12.10;;;25.60;2201.60;;;;;;5137404;27;20055;-76
2021/01/28 01:49:41;;;;;;;22.67;13.85;;;25.60;2201.60;;;;;;5135481;27;20015;-75
2021/01/28 01:52:09;;;;;;;23.03;14.23;;;25.70;2201.60;;;;;;5137359;27;20082;-74
2021/01/28 01:54:36;;;;;;;26.27;14.20;;;25.70;2201.60;;;;;;5134574;27;20076;-76
2021/01/28 01:57:12;;;;;;;29.47;17.43;;;25.70;2176.00;;;;;;5137163;27;20388;-76
2021/01/28 01:59:46;;;;;;;38.30;23.03;;;25.80;2176.00;;;;;;5134676;27;20061;-75
2021/01/28 02:02:16;;;;;;;43.63;29.77;;;25.80;2176.00;;;;;;5136928;27;20444;-77
2021/01/28 02:04:44;;;;;;;40.13;27.57;;;25.80;2176.00;;;;;;5137088;27;20388;-76
2021/01/28 02:07:22;;;;;;;48.60;30.60;;;25.90;2176.00;;;;;;5135611;27;20502;-76
2021/01/28 02:09:48;;;;;;;40.93;28.37;;;25.80;2201.60;;;;;;5135800;27;20536;-75
2021/01/28 02:12:15;;;;;;;32.73;20.67;;;26.00;2176.00;;;;;;5136916;27;20488;-76
2021/01/28 02:14:42;;;;;;;30.77;19.93;;;25.90;2201.60;;;;;;5135552;27;20056;-76
2021/01/28 02:17:16;;;;;;;26.27;16.97;;;25.90;2176.00;;;;;;5135603;27;20016;-77
2021/01/28 02:20:02;;;;;;;25.05;15.77;;;26.00;2176.00;;;;;;5135132;27;20034;-76
2021/01/28 02:22:38;;;;;;;28.43;17.47;;;26.00;2176.00;;;;;;5134673;27;20357;-76
2021/01/28 02:25:23;;;;;;;33.97;21.37;;;26.00;2176.00;;;;;;5133984;27;20054;-77
2021/01/28 02:27:50;;;;;;;28.77;18.10;;;26.00;2176.00;;;;;;5135916;27;20019;-76
2021/01/28 02:30:21;;;;;;;27.33;15.37;;;26.10;2176.00;;;;;;5132678;27;20019;-77
2021/01/28 02:32:49;;;;;;;24.30;16.03;;;26.00;2176.00;;;;;;5136561;27;20019;-76
2021/01/28 02:35:16;;;;;;;25.50;14.90;;;26.10;2176.00;;;;;;5132417;27;20039;-76
2021/01/28 02:37:42;;;;;;;24.90;15.77;;;26.10;2176.00;;;;;;5136483;27;20019;-76
2021/01/28 02:40:09;;;;;;;26.90;16.17;;;26.10;2150.40;;;;;;5136435;27;20041;-75
2021/01/28 02:42:36;;;;;;;32.80;18.90;;;26.30;2176.00;;;;;;5132270;27;20099;-76
2021/01/28 02:45:05;;;;;;;37.67;23.90;;;26.20;2150.40;;;;;;5136393;27;20422;-76
2021/01/28 02:47:30;;;;;;;31.97;19.33;;;26.20;2150.40;;;;;;5136181;27;20033;-76
2021/01/28 02:49:56;;;;;;;27.70;16.17;;;26.10;2150.40;;;;;;5134963;27;20023;-75
2021/01/28 02:52:22;;;;;;;23.50;14.70;;;26.20;2150.40;;;;;;5134919;27;20023;-75
2021/01/28 02:54:51;;;;;;;25.20;16.03;;;26.20;2150.40;;;;;;5135701;27;20102;-76
2021/01/28 02:57:17;;;;;;;27.63;16.53;;;26.20;2150.40;;;;;;5133577;27;20035;-75
2021/01/28 02:59:42;;;;;;;22.93;15.30;;;26.20;2150.40;;;;;;5135894;27;20484;-76
2021/01/28 03:02:12;;;;;;;26.13;16.67;;;26.20;2150.40;;;;;;5134769;27;20054;-76
2021/01/28 03:04:39;;;;;;;32.13;17.97;;;26.20;2150.40;;;;;;5132315;27;20472;-76
2021/01/28 03:07:11;;;;;;;36.57;22.57;;;26.20;2150.40;;;;;;5135909;27;20023;-75
2021/01/28 03:09:37;;;;;;;32.03;19.97;;;26.10;2150.40;;;;;;5133246;27;20380;-75
2021/01/28 03:12:05;;;;;;;30.97;17.60;;;26.00;2150.40;;;;;;5135692;27;20060;-75
2021/01/28 03:14:31;;;;;;;30.23;19.77;;;26.00;2150.40;;;;;;5135527;27;20032;-75
2021/01/28 03:16:57;;;;;;;34.47;22.93;;;26.10;2150.40;;;;;;5135688;27;20015;-74
2021/01/28 03:19:23;;;;;;;30.67;20.77;;;26.10;2150.40;;;;;;5134864;27;20034;-75
2021/01/28 03:21:49;;;;;;;30.37;21.07;;;26.10;2150.40;;;;;;5136071;27;20023;-75
2021/01/28 03:24:16;;;;;;;36.50;23.73;;;26.10;2150.40;;;;;;5136011;27;20023;-75
2021/01/28 03:26:42;;;;;;;29.33;19.87;;;26.10;2150.40;;;;;;5135939;27;20019;-75
2021/01/28 03:29:11;;;;;;;34.13;20.80;;;26.10;2124.80;;;;;;5134719;27;20042;-74
2021/01/28 03:31:39;;;;;;;28.53;18.53;;;26.10;2124.80;;;;;;5134588;27;20421;-75
2021/01/28 03:34:05;;;;;;;32.37;17.43;;;26.10;2124.80;;;;;;5135755;27;20016;-74
2021/01/28 03:36:31;;;;;;;24.80;13.83;;;26.10;2124.80;;;;;;5135743;27;20028;-75
2021/01/28 03:38:57;;;;;;;21.87;13.77;;;26.10;2124.80;;;;;;5135728;27;20023;-75
2021/01/28 03:41:24;;;;;;;21.80;12.40;;;26.00;2124.80;;;;;;5134330;27;20023;-74
2021/01/28 03:43:49;;;;;;;23.10;12.83;;;26.10;2124.80;;;;;;5134341;27;20099;-75
2021/01/28 03:46:15;;;;;;;20.50;12.53;;;26.10;2099.20;;;;;;5135900;27;20050;-75
2021/01/28 03:48:42;;;;;;;21.00;12.20;;;26.00;2124.80;;;;;;5135534;27;20024;-75
2021/01/28 03:51:08;;;;;;;20.67;12.33;;;26.10;2124.80;;;;;;5134271;27;20457;-74
2021/01/28 03:53:34;;;;;;;21.27;12.43;;;26.10;2124.80;;;;;;5134149;27;20387;-76
2021/01/28 03:56:00;;;;;;;23.50;13.40;;;26.10;2099.20;;;;;;5135423;27;20041;-74
2021/01/28 03:58:26;;;;;;;26.63;16.53;;;26.10;2124.80;;;;;;5134079;27;20529;-75
2021/01/28 04:00:52;;;;;;;63.10;32.67;;;26.10;2124.80;;;;;;5135142;27;20079;-76
2021/01/28 04:03:18;;;;;;;40.40;20.97;;;26.00;2124.80;;;;;;5135289;27;20027;-75
2021/01/28 04:05:44;;;;;;;39.60;20.20;;;25.90;2124.80;;;;;;5134701;27;20042;-75
2021/01/28 04:08:11;;;;;;;40.97;19.83;;;25.90;2124.80;;;;;;5133796;27;20031;-75
2021/01/28 04:10:38;;;;;;;42.80;20.80;;;25.80;2150.40;;;;;;5135113;27;20098;-76
2021/01/28 04:13:06;;;;;;;34.87;18.23;;;25.80;2150.40;;;;;;5135048;27;20106;-75
2021/01/28 04:15:33;;;;;;;32.17;17.70;;;25.90;2150.40;;;;;;5133613;27;20080;-75
2021/01/28 04:17:59;;;;;;;33.13;17.03;;;25.80;2150.40;;;;;;5134999;27;20391;-75
2021/01/28 04:20:30;;;;;;;31.90;16.70;;;25.80;2150.40;;;;;;5133638;27;20031;-75
2021/01/28 04:22:57;;;;;;;30.80;16.63;;;25.70;2176.00;;;;;;5134920;27;20057;-75
2021/01/28 04:25:24;;;;;;;38.20;19.10;;;25.70;2176.00;;;;;;5133568;27;20034;-75
2021/01/28 04:27:51;;;;;;;31.63;17.20;;;25.60;2201.60;;;;;;5133535;27;20023;-75
2021/01/28 04:30:23;;;;;;;29.80;17.03;;;25.60;2201.60;;;;;;5133576;27;20054;-75
2021/01/28 04:32:49;;;;;;;26.07;15.83;;;25.60;2201.60;;;;;;5135180;27;20027;-75
2021/01/28 04:35:15;;;;;;;30.00;15.37;;;25.60;2201.60;;;;;;5134713;27;20506;-74
2021/01/28 04:37:41;;;;;;;32.03;15.40;;;25.60;2201.60;;;;;;5135045;27;20023;-75
2021/01/28 04:40:12;;;;;;;29.93;15.33;;;0.90;2201.60;;;;;;5134821;27;20038;-74
2021/01/28 04:42:45;;;;;;;25.27;14.27;;;0.90;2201.60;;;;;;5133322;27;20027;-76
2021/01/28 04:45:14;;;;;;;30.07;15.80;;;25.60;2201.60;;;;;;5134762;27;20033;-74
2021/01/28 04:47:50;;;;;;;34.70;15.47;;;0.90;2201.60;;;;;;5134501;27;20027;-75
2021/01/28 04:50:25;;;;;;;27.90;16.03;;;0.80;2201.60;;;;;;5133346;27;20103;-75
2021/01/28 04:52:54;;;;;;;29.93;15.13;;;0.90;2201.60;;;;;;5134536;27;20026;-75
2021/01/28 04:55:24;;;;;;;31.83;15.63;;;0.90;2201.60;;;;;;5134405;27;20428;-75
2021/01/28 04:57:51;;;;;;;31.97;17.43;;;0.90;2201.60;;;;;;5135044;27;20045;-74
2021/01/28 05:00:17;;;;;;;32.10;17.50;;;0.90;2201.60;;;;;;5134039;27;20051;-75
2021/01/28 05:02:43;;;;;;;34.53;18.33;;;0.90;2201.60;;;;;;5133113;28;20024;-75
2021/01/28 05:05:09;;;;;;;35.13;18.40;;;0.90;2201.60;;;;;;5134315;28;20154;-75
2021/01/28 05:07:36;;;;;;;34.30;16.83;;;0.90;2201.60;;;;;;5133067;28;20024;-76
2021/01/28 05:10:04;;;;;;;36.30;18.93;;;25.60;2201.60;;;;;;5133030;28;20055;-75
2021/01/28 05:12:30;;;;;;;33.77;17.17;;;0.90;2201.60;;;;;;5133022;28;20069;-76
2021/01/28 05:15:10;;;;;;;34.40;19.13;;;25.60;2201.60;;;;;;5134213;27;20067;-75
2021/01/28 05:17:38;;;;;;;33.60;17.97;;;25.60;2201.60;;;;;;5134337;27;20083;-75
2021/01/28 05:20:04;;;;;;;31.87;17.70;;;25.60;2201.60;;;;;;5138691;27;20106;-74
2021/01/28 05:22:44;;;;;;;29.90;17.30;;;25.60;2201.60;;;;;;5137096;27;20019;-75
2021/01/28 05:25:30;;;;;;;33.80;18.77;;;25.60;2201.60;;;;;;5138406;27;20026;-74
2021/01/28 05:27:56;;;;;;;45.00;21.93;;;25.60;2201.60;;;;;;5138476;27;20023;-75
2021/01/28 05:30:44;;;;;;;40.10;21.27;;;0.90;2201.60;;;;;;5136955;27;20104;-75
2021/01/28 05:33:28;;;;;;;41.20;22.60;;;0.90;2201.60;;;;;;5138265;27;20023;-75
2021/01/28 05:36:20;;;;;;;;;;;0.90;2201.60;;;;;;5138457;27;20039;-75
2021/01/28 05:38:49;;;;;;;36.53;20.90;;;0.90;2201.60;;;;;;5167700;27;19903;-75
2021/01/28 05:41:34;;;;;;;35.23;22.57;;;0.90;2201.60;;;;;;5138109;27;20487;-75
2021/01/28 05:44:27;;;;;;;35.83;21.87;;;0.70;2201.60;;;;;;5138009;27;20488;-74
2021/01/28 05:47:08;;;;;;;37.10;22.63;;;0.80;2201.60;;;;;;5134754;27;20038;-75
2021/01/28 05:49:37;;;;;;;39.53;23.80;;;0.70;2201.60;;;;;;5137839;27;20023;-76
2021/01/28 05:52:26;;;;;;;41.07;22.90;;;0.60;2201.60;;;;;;5137806;27;20015;-75
2021/01/28 05:55:07;;;;;;;45.37;23.40;;;0.60;2201.60;;;;;;5137679;27;20076;-75
2021/01/28 05:58:09;;;;;;;70.50;33.23;;;0.50;2201.60;;;;;;5137954;27;20030;-76
2021/01/28 06:00:51;;;;;;;122.33;51.00;;;0.50;2201.60;;;;;;5054317;28;20505;-75
2021/01/28 06:03:48;;;;;;;114.27;48.73;;;0.50;2201.60;;;;;;5054351;28;20401;-75
2021/01/28 06:06:53;;;;;;;82.60;39.03;;;0.50;2201.60;;;;;;5037440;28;20040;-74
2021/01/28 06:09:24;;;;;;;64.07;32.00;;;0.60;2201.60;;;;;;5053034;28;20437;-75
2021/01/28 06:12:23;;;;;;;61.30;30.13;;;0.50;2201.60;;;;;;5054253;28;20040;-75
2021/01/28 06:15:01;;;;;;;118.97;49.33;;;0.50;2201.60;;;;;;5054353;28;20111;-74
2021/01/28 06:17:46;;;;;;;138.63;60.60;;;0.50;2201.60;;;;;;5054223;28;20441;-75
2021/01/28 06:20:32;;;;;;;142.67;61.63;;;0.40;2201.60;;;;;;5053942;28;20087;-74
2021/01/28 06:23:21;;;;;;;110.07;49.07;;;0.40;2201.60;;;;;;5054426;28;20067;-74
2021/01/28 06:26:16;;;;;;;85.03;41.83;;;0.30;2201.60;;;;;;5037186;28;20032;-75
2021/01/28 06:29:06;;;;;;;67.57;35.93;;;0.30;2201.60;;;;;;5053630;28;20021;-75
2021/01/28 06:31:41;;;;;;;65.40;34.83;;;0.20;2201.60;;;;;;5053796;28;20086;-75
2021/01/28 06:34:20;;;;;;;70.13;36.57;;;0.20;2201.60;;;;;;5053684;28;20086;-75
2021/01/28 06:37:07;;;;;;;88.77;44.07;;;0.10;2201.60;;;;;;5118070;27;20384;-74
2021/01/28 06:39:35;;;;;;;162.47;74.20;;;0.10;2201.60;;;;;;5137220;27;20015;-75
2021/01/28 06:42:33;;;;;;;127.37;62.07;;;0.10;2201.60;;;;;;5136871;27;20015;-75
2021/01/28 06:45:16;;;;;;;74.47;40.10;;;0.10;2201.60;;;;;;5130769;27;20031;-75
2021/01/28 06:48:10;;;;;;;62.03;33.60;;;0.10;2201.60;;;;;;5136812;27;20019;-76
2021/01/28 06:50:52;;;;;;;60.73;33.87;;;0.00;2201.60;;;;;;5134808;27;20038;-75
2021/01/28 06:53:21;;;;;;;76.60;42.70;;;0.00;2201.60;;;;;;5136754;27;20080;-74
2021/01/28 06:56:02;;;;;;;60.03;38.97;;;0.00;2201.60;;;;;;5136512;27;20070;-75
2021/01/28 06:58:46;;;;;;;67.37;40.60;;;0.10;2201.60;;;;;;5135335;27;20460;-75
2021/01/28 07:01:38;;;;;;;70.10;43.67;;;0.20;2201.60;;;;;;5136364;27;20071;-75
2021/01/28 07:04:34;;;;;;;82.77;46.57;;;0.30;2201.60;;;;;;5125233;27;20035;-74
2021/01/28 07:07:25;;;;;;;91.47;44.90;;;0.40;2201.60;;;;;;5135175;27;20038;-75
2021/01/28 07:09:59;;;;;;;96.33;48.40;;;0.50;2201.60;;;;;;5136416;27;20023;-75
2021/01/28 07:12:37;;;;;;;71.13;37.83;;;0.50;2201.60;;;;;;5136338;27;20027;-75
2021/01/28 07:15:05;;;;;;;57.63;32.80;;;0.60;2201.60;;;;;;5134907;27;20556;-75
2021/01/28 07:17:52;;;;;;;71.20;37.83;;;0.70;2201.60;;;;;;5136444;27;20051;-75
2021/01/28 07:20:32;;;;;;;99.37;51.87;;;0.70;2201.60;;;;;;5136099;27;20023;-75
2021/01/28 07:23:19;;;;;;;106.37;52.10;;;0.70;2201.60;;;;;;5136399;27;20030;-75
2021/01/28 07:25:47;;;;;;;98.63;52.87;;;0.70;2201.60;;;;;;5135435;27;20015;-76
2021/01/28 07:28:19;;;;;;;94.87;50.33;;;0.70;2201.60;;;;;;5136066;27;20162;-75
2021/01/28 07:30:53;;;;;;;104.87;56.60;;;0.70;2201.60;;;;;;5136200;27;20376;-75
2021/01/28 07:33:24;;;;;;;87.43;48.60;;;0.80;2201.60;;;;;;5135904;27;20019;-75
2021/01/28 07:36:22;;;;;;;61.97;36.80;;;0.80;2201.60;;;;;;5136065;27;20546;-75
2021/01/28 07:38:58;;;;;;;60.10;36.13;;;0.70;2201.60;;;;;;5135575;27;20016;-75
2021/01/28 07:41:27;;;;;;;59.43;35.00;;;0.80;2201.60;;;;;;5134663;27;20494;-75
2021/01/28 07:44:15;;;;;;;64.63;33.50;;;0.80;2201.60;;;;;;5135615;27;20022;-75
2021/01/28 07:46:42;;;;;;;56.97;30.37;;;0.70;2201.60;;;;;;5135419;27;20047;-75
2021/01/28 07:49:29;;;;;;;56.27;33.03;;;0.60;2201.60;;;;;;5135540;27;20034;-75
2021/01/28 07:51:58;;;;;;;101.00;55.23;;;0.70;2201.60;;;;;;5135609;27;20095;-75
2021/01/28 07:54:23;;;;;;;62.93;35.57;;;0.70;2201.60;;;;;;5135589;27;20026;-75
2021/01/28 07:56:54;;;;;;;65.80;37.30;;;0.80;2201.60;;;;;;5135446;27;20106;-74
2021/01/28 07:59:25;;;;;;;69.63;39.10;;;0.90;2201.60;;;;;;5133854;27;20475;-75
2021/01/28 08:01:53;;;;;;;76.33;45.03;;;0.90;2201.60;;;;;;5135580;27;20023;-75
2021/01/28 08:04:33;;;;;;;77.97;43.03;;;25.60;2201.60;;;;;;5135429;27;20027;-75
2021/01/28 08:07:00;;;;;;;86.07;46.00;;;25.60;2201.60;;;;;;5135193;27;20099;-74
2021/01/28 08:09:26;;;;;;;90.53;49.07;;;25.70;2201.60;;;;;;5135196;27;20095;-74
2021/01/28 08:11:55;;;;;;;116.47;59.00;;;25.80;2201.60;;;;;;5133853;27;20023;-75
2021/01/28 08:14:29;;;;;;;103.50;55.47;;;25.90;2201.60;;;;;;5133741;27;20420;-75
2021/01/28 08:16:56;;;;;;;110.05;55.20;;;26.00;2201.60;;;;;;5134064;27;20031;-75
2021/01/28 08:19:27;;;;;;;98.03;51.20;;;26.10;2201.60;;;;;;5135020;27;20028;-75
2021/01/28 08:22:15;;;;;;;97.27;51.27;;;26.20;2201.60;;;;;;5133715;27;20102;-75
2021/01/28 08:24:52;;;;;;;123.97;60.60;;;26.30;2201.60;;;;;;5132980;27;20433;-76
2021/01/28 08:27:21;;;;;;;84.30;43.93;;;26.30;2201.60;;;;;;5131775;27;20020;-76
2021/01/28 08:30:06;;;;;;;117.30;53.47;;;26.20;2201.60;;;;;;5134169;27;20019;-76
2021/01/28 08:32:34;;;;;;;86.77;47.17;;;26.10;2201.60;;;;;;5132641;27;20456;-75
2021/01/28 08:35:11;;;;;;;120.23;57.27;;;26.10;2201.60;;;;;;5134206;27;20062;-75
2021/01/28 08:37:37;;;;;;;82.43;44.37;;;26.20;2201.60;;;;;;5130594;27;20459;-75
2021/01/28 08:40:14;;;;;;;98.23;52.20;;;26.20;2201.60;;;;;;5134800;27;20460;-75
2021/01/28 08:42:40;;;;;;;300.93;127.60;;;26.20;2201.60;;;;;;5134053;27;20019;-75
2021/01/28 08:45:17;;;;;;;114.70;58.90;;;26.30;2201.60;;;;;;5134153;27;20027;-75
2021/01/28 08:47:54;;;;;;;82.80;45.20;;;26.40;2201.60;;;;;;5131578;27;20030;-76
2021/01/28 08:50:24;;;;;;;76.67;42.67;;;26.50;2201.60;;;;;;5134244;27;20038;-74
2021/01/28 08:52:53;;;;;;;134.87;63.23;;;26.40;2201.60;;;;;;5133808;27;20472;-74
2021/01/28 08:55:27;;;;;;;94.00;49.90;;;26.50;2201.60;;;;;;5133854;27;20038;-75
2021/01/28 08:58:12;;;;;;;100.72;52.00;;;26.50;2201.60;;;;;;5134021;27;20016;-75
2021/01/28 09:00:49;;;;;;;88.97;47.67;;;51.20;2227.20;;;;;;5133322;28;20096;-75
2021/01/28 09:03:35;;;;;;;93.43;50.20;;;51.30;2227.20;;;;;;5133980;28;20046;-74
2021/01/28 09:06:03;;;;;;;119.50;64.90;;;51.30;2227.20;;;;;;5133834;28;20037;-75
2021/01/28 09:08:35;;;;;;;113.93;62.60;;;51.40;2227.20;;;;;;5133960;28;20060;-76
2021/01/28 09:11:20;;;;;;;153.03;87.77;;;51.40;2227.20;;;;;;5133788;27;20484;-76
2021/01/28 09:14:36;;;;;;;140.33;80.40;;;51.50;2227.20;;;;;;5131815;28;20019;-77
2021/01/28 09:17:05;;;;;;;135.17;81.50;;;51.40;2227.20;;;;;;5047784;28;20398;-75
2021/01/28 09:19:56;;;;;;;136.37;75.47;;;51.30;2227.20;;;;;;5047106;28;20033;-77
2021/01/28 09:22:30;;;;;;;123.50;67.33;;;51.40;2227.20;;;;;;5049541;28;20031;-75
2021/01/28 09:24:56;;;;;;;110.55;58.60;;;51.30;2227.20;;;;;;5042411;28;20025;-75
2021/01/28 09:27:21;;;;;;;90.80;47.80;;;51.40;2227.20;;;;;;5033973;28;20036;-76
2021/01/28 09:29:50;;;;;;;84.73;46.30;;;51.40;2227.20;;;;;;5050762;28;20491;-75
2021/01/28 09:32:18;;;;;;;73.43;41.27;;;51.50;2227.20;;;;;;5050686;28;20059;-74
2021/01/28 09:34:46;;;;;;;70.33;41.97;;;51.60;2227.20;;;;;;5050542;28;20112;-77
2021/01/28 09:37:18;;;;;;;74.40;42.57;;;51.60;2227.20;;;;;;5050704;28;20025;-74
2021/01/28 09:39:47;;;;;;;76.57;43.30;;;51.60;2227.20;;;;;;5050596;28;20538;-75
2021/01/28 09:42:19;;;;;;;69.60;40.70;;;51.60;2227.20;;;;;;5050693;28;20478;-74
2021/01/28 09:44:49;;;;;;;67.63;40.73;;;51.80;2227.20;;;;;;5050404;28;20029;-75
2021/01/28 09:47:24;;;;;;;64.90;37.33;;;51.90;2227.20;;;;;;5050567;28;20030;-74
2021/01/28 09:50:16;;;;;;;57.00;34.83;;;52.00;2227.20;;;;;;5033820;28;20116;-75
2021/01/28 09:52:44;;;;;;;59.97;32.97;;;52.10;2227.20;;;;;;5100508;28;20031;-75
2021/01/28 09:55:17;;;;;;;60.67;35.07;;;76.80;2227.20;;;;;;5129919;28;20080;-75
2021/01/28 09:57:44;;;;;;;63.47;35.60;;;76.80;2227.20;;;;;;5133670;27;20023;-77
2021/01/28 10:00:13;;;;;;;62.70;35.77;;;76.90;2227.20;;;;;;5133668;27;20047;-75
2021/01/28 10:02:49;;;;;;;60.07;33.43;;;52.10;2227.20;;;;;;5132534;28;20502;-73
2021/01/28 10:05:21;;;;;;;55.60;32.77;;;52.10;2227.20;;;;;;5136125;27;20103;-73
2021/01/28 10:07:47;;;;;;;45.00;27.33;;;76.80;2227.20;;;;;;5136045;27;20451;-73
2021/01/28 10:10:19;;;;;;;52.30;30.83;;;52.10;2227.20;;;;;;5137495;27;20022;-73
2021/01/28 10:12:47;;;;;;;49.63;29.73;;;52.10;2227.20;;;;;;5136217;27;20015;-73
2021/01/28 10:15:14;;;;;;;47.63;28.77;;;52.00;2227.20;;;;;;5136006;27;20384;-73
2021/01/28 10:17:42;;;;;;;52.53;30.37;;;52.00;2227.20;;;;;;5137358;27;20106;-73
2021/01/28 10:20:08;;;;;;;51.53;29.77;;;52.00;2227.20;;;;;;5137517;27;20015;-73
2021/01/28 10:22:37;;;;;;;61.13;36.33;;;52.10;2227.20;;;;;;5137249;27;20023;-73
2021/01/28 10:25:08;;;;;;;60.00;35.20;;;52.00;2227.20;;;;;;5137235;27;20059;-73
2021/01/28 10:27:35;;;;;;;54.50;31.90;;;52.00;2227.20;;;;;;5137129;27;20531;-75
2021/01/28 10:30:04;;;;;;;56.53;31.87;;;52.00;2227.20;;;;;;5137196;27;20140;-75
2021/01/28 10:32:30;;;;;;;50.07;29.73;;;51.90;2227.20;;;;;;5137041;27;20081;-77
2021/01/28 10:34:55;;;;;;;60.90;33.13;;;51.90;2227.20;;;;;;5136332;27;20490;-77
2021/01/28 10:37:21;;;;;;;55.27;33.57;;;51.90;2227.20;;;;;;5134893;27;20072;-76
2021/01/28 10:39:47;;;;;;;60.43;33.40;;;51.80;2227.20;;;;;;5136335;27;20031;-75
2021/01/28 10:42:19;;;;;;;63.80;37.03;;;51.90;2227.20;;;;;;5133659;27;20413;-76
2021/01/28 10:44:47;;;;;;;60.77;32.20;;;52.00;2227.20;;;;;;5135339;27;20031;-75
2021/01/28 10:47:14;;;;;;;47.10;29.50;;;52.00;2227.20;;;;;;5136181;27;20042;-76
2021/01/28 10:49:40;;;;;;;57.53;32.07;;;52.00;2227.20;;;;;;5135888;27;20498;-76
2021/01/28 10:52:07;;;;;;;54.60;30.13;;;52.10;2227.20;;;;;;5136608;27;20032;-75
2021/01/28 10:54:32;;;;;;;47.87;28.10;;;52.10;2227.20;;;;;;5136255;27;20027;-77
2021/01/28 10:56:58;;;;;;;49.37;29.53;;;76.80;2227.20;;;;;;5136468;27;20027;-74
2021/01/28 10:59:24;;;;;;;52.57;31.53;;;76.90;2227.20;;;;;;5134521;27;20083;-75
2021/01/28 11:01:50;;;;;;;51.17;28.90;;;77.00;2227.20;;;;;;5134857;27;20072;-75
2021/01/28 11:04:16;;;;;;;47.23;26.17;;;77.00;2227.20;;;;;;5136214;27;20356;-75
2021/01/28 11:06:42;;;;;;;49.83;27.07;;;77.00;2227.20;;;;;;5136336;27;20111;-75
2021/01/28 11:09:08;;;;;;;54.40;30.73;;;76.90;2201.60;;;;;;5136335;27;20034;-75
2021/01/28 11:11:34;;;;;;;60.37;32.73;;;77.00;2227.20;;;;;;5136092;27;20103;-75
2021/01/28 11:14:00;;;;;;;48.73;27.80;;;77.10;2227.20;;;;;;5135201;27;20023;-75
2021/01/28 11:16:28;;;;;;;41.60;23.10;;;77.10;2201.60;;;;;;5136497;27;20035;-76
2021/01/28 11:18:54;;;;;;;45.50;26.50;;;77.20;2176.00;;;;;;5134883;27;20114;-75
2021/01/28 11:21:21;;;;;;;41.53;25.33;;;77.20;2176.00;;;;;;5134865;27;20023;-75
2021/01/28 11:23:48;;;;;;;53.60;28.57;;;77.20;2201.60;;;;;;5136056;27;20094;-75
2021/01/28 11:26:15;;;;;;;49.97;27.87;;;77.30;2201.60;;;;;;5135985;27;20034;-75
2021/01/28 11:28:41;;;;;;;48.73;27.20;;;77.40;2176.00;;;;;;5134717;27;20023;-75
2021/01/28 11:31:07;;;;;;;44.70;25.80;;;77.40;2176.00;;;;;;5136056;27;20022;-75
2021/01/28 11:33:34;;;;;;;56.27;29.73;;;77.40;2150.40;;;;;;5135950;27;20082;-75
2021/01/28 11:36:00;;;;;;;44.43;25.83;;;77.50;2150.40;;;;;;5135761;27;20433;-75
2021/01/28 11:38:27;;;;;;;35.17;21.07;;;77.50;2150.40;;;;;;5134510;27;20069;-75
2021/01/28 11:40:53;;;;;;;39.50;22.37;;;77.50;2124.80;;;;;;5134581;27;20031;-75
2021/01/28 11:43:19;;;;;;;31.60;18.83;;;77.40;2124.80;;;;;;5134473;27;20114;-75
2021/01/28 11:45:45;;;;;;;34.27;19.07;;;77.40;2099.20;;;;;;5135647;27;20048;-76
2021/01/28 11:48:11;;;;;;;36.60;22.50;;;77.50;2124.80;;;;;;5135612;27;20551;-74
2021/01/28 11:50:37;;;;;;;40.73;23.97;;;77.50;2124.80;;;;;;5135496;27;20059;-75
2021/01/28 11:53:03;;;;;;;34.33;20.67;;;77.50;2124.80;;;;;;5134265;27;20015;-74
2021/01/28 11:55:30;;;;;;;34.77;20.63;;;77.50;2099.20;;;;;;5135399;27;20125;-75
2021/01/28 11:57:57;;;;;;;34.50;20.80;;;77.40;2150.40;;;;;;5135439;27;20076;-75
2021/01/28 12:00:25;;;;;;;40.90;24.27;;;77.60;2124.80;;;;;;5135155;27;20572;-75
2021/01/28 12:02:51;;;;;;;39.87;23.60;;;77.60;2150.40;;;;;;5135624;27;20146;-75
2021/01/28 12:05:20;;;;;;;35.93;19.93;;;77.70;2124.80;;;;;;5135245;27;20027;-75
2021/01/28 12:07:46;;;;;;;32.80;18.60;;;102.40;2099.20;;;;;;5133948;27;20361;-75
2021/01/28 12:10:16;;;;;;;32.97;18.87;;;102.40;2099.20;;;;;;5135241;27;20023;-75
2021/01/28 12:12:42;;;;;;;28.90;17.47;;;102.40;2073.60;;;;;;5135422;27;20023;-75
2021/01/28 12:15:09;;;;;;;29.17;15.17;;;102.40;2073.60;;;;;;5135005;27;20452;-75
2021/01/28 12:17:35;;;;;;;29.17;15.93;;;102.40;2048.00;;;;;;5135016;27;20522;-75
2021/01/28 12:20:02;;;;;;;26.03;15.13;;;102.50;2073.60;;;;;;5135268;27;20023;-75
2021/01/28 12:22:28;;;;;;;31.77;16.30;;;102.50;2022.40;;;;;;5134009;27;20114;-75
2021/01/28 12:24:54;;;;;;;34.73;19.53;;;102.60;1996.80;;;;;;5134948;27;20160;-75
2021/01/28 12:27:20;;;;;;;34.37;18.13;;;102.60;1996.80;;;;;;5132960;27;20530;-75
2021/01/28 12:29:46;;;;;;;33.17;17.73;;;102.70;1996.80;;;;;;5134959;27;20110;-75